Time;durP1;ratioP1;P1;durP2;ratioP2;P2;SDS_P1;SDS_P2;PMS_P1;PMS_P2;Temp;Humidity;BMP_temperature;BMP_pressure;BME280_temperature;BME280_humidity;BME280_pressure;Samples;Min_cycle;Max_cycle;Signal;HPM_P1;HPM_P2
2021/06/22 00:00:54;;;;;;;10.00;6.30;;;15.50;99.90;;;;;;5077007;28;20216;-81
2021/06/22 00:03:19;;;;;;;8.07;5.70;;;15.50;99.90;;;;;;5077679;28;20177;-79
2021/06/22 00:05:45;;;;;;;7.90;6.07;;;15.60;99.90;;;;;;5076934;28;20173;-79
2021/06/22 00:08:11;;;;;;;7.83;5.80;;;15.50;99.90;;;;;;5076844;28;20233;-79
2021/06/22 00:10:36;;;;;;;9.17;6.00;;;15.40;99.90;;;;;;5076155;28;20617;-79
2021/06/22 00:13:02;;;;;;;6.67;5.83;;;15.40;99.90;;;;;;5076262;28;20312;-79
2021/06/22 00:15:30;;;;;;;9.70;5.77;;;15.50;99.90;;;;;;5076772;28;20242;-79
2021/06/22 00:17:56;;;;;;;8.33;5.70;;;15.40;99.90;;;;;;5077548;28;20628;-81
2021/06/22 00:20:23;;;;;;;5.87;4.73;;;15.30;99.90;;;;;;5077487;28;20249;-81
2021/06/22 00:22:50;;;;;;;8.13;5.27;;;15.40;99.90;;;;;;5077583;28;20172;-79
2021/06/22 00:25:17;;;;;;;7.60;4.73;;;15.30;99.90;;;;;;5076908;28;20665;-81
2021/06/22 00:27:43;;;;;;;7.00;5.33;;;15.30;99.90;;;;;;5076458;28;20173;-79
2021/06/22 00:30:10;;;;;;;7.83;5.80;;;15.30;99.90;;;;;;5076591;28;20176;-80
2021/06/22 00:32:36;;;;;;;7.23;5.70;;;15.20;99.90;;;;;;5076828;28;20252;-80
2021/06/22 00:35:03;;;;;;;8.60;5.33;;;15.20;99.90;;;;;;5076037;28;20169;-81
2021/06/22 00:37:29;;;;;;;8.10;6.00;;;15.20;99.90;;;;;;5077305;28;20230;-80
2021/06/22 00:39:54;;;;;;;7.03;5.90;;;15.20;99.90;;;;;;5077017;28;20169;-79
2021/06/22 00:42:20;;;;;;;9.73;5.87;;;15.40;99.90;;;;;;5075238;28;20272;-81
2021/06/22 00:44:54;;;;;;;7.53;6.07;;;15.30;99.90;;;;;;5075866;28;20173;-81
2021/06/22 00:47:21;;;;;;;9.13;6.00;;;15.20;99.90;;;;;;5077248;28;20185;-79
2021/06/22 00:49:49;;;;;;;8.93;5.73;;;15.30;99.90;;;;;;5077354;28;20176;-80
2021/06/22 00:52:19;;;;;;;9.03;6.03;;;15.30;99.90;;;;;;5077026;28;20195;-81
2021/06/22 00:54:45;;;;;;;8.43;5.73;;;15.20;99.90;;;;;;5077585;28;20158;-82
2021/06/22 00:57:11;;;;;;;8.97;5.60;;;15.30;99.90;;;;;;5076877;28;20180;-81
2021/06/22 00:59:37;;;;;;;7.53;6.03;;;15.10;99.90;;;;;;5076644;28;20177;-79
2021/06/22 01:02:04;;;;;;;9.40;5.80;;;15.20;99.90;;;;;;5076713;28;20219;-79
2021/06/22 01:04:30;;;;;;;6.70;5.57;;;15.40;99.90;;;;;;5075679;28;20544;-78
2021/06/22 01:06:57;;;;;;;8.27;6.00;;;15.20;99.90;;;;;;5076694;28;20177;-79
2021/06/22 01:09:24;;;;;;;8.30;5.43;;;15.30;99.90;;;;;;5082645;28;20161;-79
2021/06/22 01:11:51;;;;;;;9.47;6.43;;;15.20;99.90;;;;;;5090242;28;20232;-79
2021/06/22 01:14:16;;;;;;;7.47;5.50;;;15.20;99.90;;;;;;5092280;28;20205;-78
2021/06/22 01:16:48;;;;;;;7.57;5.33;;;15.30;99.90;;;;;;5089152;28;20185;-79
2021/06/22 01:19:14;;;;;;;9.40;5.87;;;15.20;99.90;;;;;;5092164;28;20215;-78
2021/06/22 01:21:41;;;;;;;9.87;6.07;;;15.20;99.90;;;;;;5091105;28;20209;-78
2021/06/22 01:24:22;;;;;;;9.20;5.90;;;15.30;99.90;;;;;;5082888;28;20695;-79
2021/06/22 01:26:58;;;;;;;9.83;5.40;;;15.30;99.90;;;;;;5077102;28;20201;-79
2021/06/22 01:29:25;;;;;;;7.70;5.63;;;15.20;99.90;;;;;;5078117;28;20153;-79
2021/06/22 01:31:57;;;;;;;8.07;5.63;;;15.20;99.90;;;;;;5076325;28;20182;-80
2021/06/22 01:34:24;;;;;;;8.93;5.43;;;15.20;99.90;;;;;;5076485;28;20181;-82
2021/06/22 01:36:51;;;;;;;8.97;5.57;;;15.20;99.90;;;;;;5076458;28;20153;-79
2021/06/22 01:39:19;;;;;;;8.47;5.30;;;15.20;99.90;;;;;;5074643;28;20198;-79
2021/06/22 01:41:45;;;;;;;8.33;4.97;;;15.20;99.90;;;;;;5074392;28;20818;-80
2021/06/22 01:44:11;;;;;;;8.70;4.97;;;15.20;99.50;;;;;;5073546;28;20195;-79
2021/06/22 01:46:37;;;;;;;8.43;5.40;;;15.20;99.60;;;;;;5074739;28;20193;-79
2021/06/22 01:49:03;;;;;;;8.00;4.47;;;15.30;99.90;;;;;;5075704;28;20192;-79
2021/06/22 01:51:29;;;;;;;6.07;4.70;;;15.20;99.60;;;;;;5074974;28;20279;-81
2021/06/22 01:53:59;;;;;;;9.53;5.07;;;15.10;99.30;;;;;;5074532;28;20204;-80
2021/06/22 01:56:27;;;;;;;8.33;5.00;;;15.10;99.40;;;;;;5075790;28;20173;-79
2021/06/22 01:58:53;;;;;;;8.57;5.40;;;15.30;99.10;;;;;;5074473;28;20226;-79
2021/06/22 02:01:19;;;;;;;6.60;4.90;;;15.10;99.50;;;;;;5075938;28;20662;-80
2021/06/22 02:03:45;;;;;;;8.90;5.20;;;15.10;99.50;;;;;;5075604;28;20593;-80
2021/06/22 02:06:11;;;;;;;8.47;4.60;;;15.10;99.70;;;;;;5075238;28;20246;-80
2021/06/22 02:08:37;;;;;;;6.37;4.50;;;15.10;99.30;;;;;;5074424;28;20205;-79
2021/06/22 02:11:03;;;;;;;7.93;5.00;;;15.00;99.30;;;;;;5074536;28;20188;-78
2021/06/22 02:13:29;;;;;;;5.47;4.33;;;14.90;99.50;;;;;;5073415;28;20185;-79
2021/06/22 02:15:55;;;;;;;6.73;4.83;;;14.90;99.50;;;;;;5074706;28;20520;-78
2021/06/22 02:18:21;;;;;;;9.60;5.47;;;14.90;99.90;;;;;;5075334;28;20273;-80
2021/06/22 02:20:47;;;;;;;7.80;4.23;;;14.80;99.90;;;;;;5074540;28;20199;-81
2021/06/22 02:23:14;;;;;;;8.93;4.80;;;14.80;99.90;;;;;;5075011;28;20183;-79
2021/06/22 02:25:40;;;;;;;8.67;4.83;;;14.80;99.90;;;;;;5076851;28;20173;-80
2021/06/22 02:28:22;;;;;;;7.57;5.00;;;14.80;99.90;;;;;;5075963;28;20165;-79
2021/06/22 02:30:49;;;;;;;9.80;4.87;;;14.80;99.90;;;;;;5076000;28;20188;-80
2021/06/22 02:33:14;;;;;;;7.67;4.83;;;14.80;99.90;;;;;;5075206;28;20171;-79
2021/06/22 02:35:41;;;;;;;9.37;5.40;;;14.70;99.90;;;;;;5074405;28;20168;-79
2021/06/22 02:38:08;;;;;;;10.17;5.67;;;14.80;99.90;;;;;;5073480;28;20262;-80
2021/06/22 02:40:34;;;;;;;8.13;4.90;;;14.80;99.90;;;;;;5073784;28;20203;-79
2021/06/22 02:43:00;;;;;;;7.70;4.43;;;14.90;99.90;;;;;;5073350;28;20211;-78
2021/06/22 02:45:25;;;;;;;9.73;5.00;;;14.80;99.20;;;;;;5073092;28;20180;-81
2021/06/22 02:47:51;;;;;;;9.63;5.47;;;14.80;99.30;;;;;;5073643;28;20235;-78
2021/06/22 02:50:19;;;;;;;8.23;4.70;;;14.90;99.10;;;;;;5074062;28;20522;-80
2021/06/22 02:52:45;;;;;;;12.10;4.87;;;14.80;99.00;;;;;;5074511;28;20210;-80
2021/06/22 02:55:18;;;;;;;6.10;4.60;;;14.70;99.30;;;;;;5074321;28;20652;-80
2021/06/22 02:57:48;;;;;;;9.10;4.60;;;14.70;99.60;;;;;;5073817;28;20172;-80
2021/06/22 03:00:15;;;;;;;7.47;4.77;;;14.70;99.00;;;;;;5073446;28;20531;-79
2021/06/22 03:02:41;;;;;;;6.80;4.40;;;14.80;98.90;;;;;;5075394;28;20202;-79
2021/06/22 03:05:08;;;;;;;5.87;4.07;;;14.80;98.90;;;;;;5073639;28;20167;-79
2021/06/22 03:07:34;;;;;;;7.53;4.37;;;14.80;98.50;;;;;;5073677;28;20195;-79
2021/06/22 03:09:59;;;;;;;7.53;4.03;;;14.70;98.40;;;;;;5074125;28;20638;-79
2021/06/22 03:12:25;;;;;;;7.50;4.43;;;14.80;98.20;;;;;;5073136;28;20211;-80
2021/06/22 03:14:50;;;;;;;6.00;4.40;;;14.80;98.60;;;;;;5072134;28;20189;-79
2021/06/22 03:17:16;;;;;;;7.90;4.37;;;15.00;98.30;;;;;;5073173;28;20169;-80
2021/06/22 03:19:42;;;;;;;10.60;5.30;;;14.80;98.30;;;;;;5073987;28;20184;-78
2021/06/22 03:22:07;;;;;;;7.37;4.40;;;14.80;98.40;;;;;;5072632;28;20208;-78
2021/06/22 03:24:33;;;;;;;7.17;5.00;;;14.70;98.80;;;;;;5073907;28;20550;-79
2021/06/22 03:26:58;;;;;;;7.20;4.27;;;14.70;99.20;;;;;;5074499;28;20173;-79
2021/06/22 03:29:25;;;;;;;5.27;4.43;;;14.70;99.30;;;;;;5073819;28;20168;-79
2021/06/22 03:31:51;;;;;;;9.47;4.80;;;14.70;99.40;;;;;;5073482;28;20169;-78
2021/06/22 03:34:17;;;;;;;7.47;4.57;;;14.80;99.40;;;;;;5075603;28;20317;-79
2021/06/22 03:36:43;;;;;;;10.33;5.10;;;14.70;99.30;;;;;;5076955;28;20180;-78
2021/06/22 03:39:15;;;;;;;7.87;4.80;;;14.70;99.50;;;;;;5077542;28;20597;-79
2021/06/22 03:41:40;;;;;;;9.90;4.67;;;14.80;99.50;;;;;;5078161;28;20629;-79
2021/06/22 03:44:06;;;;;;;9.50;5.10;;;14.70;99.60;;;;;;5077175;28;20180;-78
2021/06/22 03:46:32;;;;;;;10.00;5.37;;;14.70;99.70;;;;;;5078523;28;20192;-79
2021/06/22 03:48:58;;;;;;;10.60;7.43;;;14.70;99.50;;;;;;5077195;28;20176;-79
2021/06/22 03:51:23;;;;;;;8.87;5.17;;;14.70;99.90;;;;;;5078228;28;20196;-79
2021/06/22 03:53:49;;;;;;;9.97;5.30;;;14.70;99.90;;;;;;5077619;28;20248;-79
2021/06/22 03:56:15;;;;;;;10.37;6.33;;;14.80;99.90;;;;;;5077703;28;20175;-80
2021/06/22 03:58:42;;;;;;;8.83;6.33;;;14.60;99.90;;;;;;5078326;28;20164;-79
2021/06/22 04:01:08;;;;;;;8.40;6.10;;;14.60;99.90;;;;;;5076525;28;20207;-79
2021/06/22 04:03:33;;;;;;;11.83;7.00;;;14.70;99.90;;;;;;5077725;28;20540;-79
2021/06/22 04:05:59;;;;;;;10.23;6.27;;;14.80;99.90;;;;;;5077841;28;20156;-79
2021/06/22 04:08:25;;;;;;;10.00;6.00;;;14.70;99.90;;;;;;5077964;28;20251;-79
2021/06/22 04:10:51;;;;;;;12.27;6.07;;;14.70;99.90;;;;;;5077209;28;20659;-79
2021/06/22 04:13:17;;;;;;;9.33;5.90;;;14.70;99.70;;;;;;5077657;28;20183;-78
2021/06/22 04:15:42;;;;;;;9.27;6.27;;;14.60;99.90;;;;;;5078067;28;20172;-79
2021/06/22 04:18:10;;;;;;;12.23;5.57;;;14.60;99.90;;;;;;5076509;28;20656;-79
2021/06/22 04:20:38;;;;;;;11.80;6.20;;;14.50;99.90;;;;;;5077783;28;20209;-79
2021/06/22 04:23:04;;;;;;;14.80;6.60;;;14.50;99.90;;;;;;5077709;28;20200;-79
2021/06/22 04:25:30;;;;;;;11.03;6.60;;;14.60;99.90;;;;;;5076188;28;20255;-80
2021/06/22 04:27:59;;;;;;;12.00;6.30;;;14.50;99.90;;;;;;5076722;28;20609;-80
2021/06/22 04:30:25;;;;;;;16.77;7.30;;;14.50;99.90;;;;;;5077285;28;20180;-79
2021/06/22 04:32:51;;;;;;;12.40;6.10;;;14.50;99.90;;;;;;5077476;28;20173;-79
2021/06/22 04:35:16;;;;;;;10.00;6.00;;;14.40;99.90;;;;;;5078124;28;20164;-79
2021/06/22 04:37:42;;;;;;;9.37;6.40;;;14.40;99.90;;;;;;5077774;28;20211;-78
2021/06/22 04:40:10;;;;;;;11.17;6.23;;;14.40;99.90;;;;;;5076316;28;20168;-80
2021/06/22 04:42:35;;;;;;;10.97;7.10;;;14.40;99.90;;;;;;5077069;28;20208;-78
2021/06/22 04:45:02;;;;;;;10.63;5.93;;;14.40;99.90;;;;;;5076834;28;20172;-79
2021/06/22 04:47:27;;;;;;;10.43;6.20;;;14.40;99.90;;;;;;5075794;28;20182;-79
2021/06/22 04:49:53;;;;;;;11.93;5.40;;;14.30;99.90;;;;;;5075153;28;20187;-79
2021/06/22 04:52:19;;;;;;;14.17;5.73;;;14.20;99.90;;;;;;5076495;28;20195;-79
2021/06/22 04:54:44;;;;;;;14.40;6.20;;;14.30;99.90;;;;;;5076569;28;20515;-79
2021/06/22 04:57:12;;;;;;;10.40;5.97;;;14.20;99.90;;;;;;5077333;28;20218;-78
2021/06/22 04:59:41;;;;;;;11.23;6.67;;;14.20;99.90;;;;;;5076434;28;20164;-81
2021/06/22 05:02:07;;;;;;;13.37;6.43;;;14.30;99.90;;;;;;5076576;28;20238;-80
2021/06/22 05:04:34;;;;;;;11.90;6.50;;;14.20;99.90;;;;;;5076319;28;20226;-79
2021/06/22 05:07:00;;;;;;;13.70;6.53;;;14.20;99.90;;;;;;5078558;28;20636;-79
2021/06/22 05:09:25;;;;;;;13.07;6.83;;;14.20;99.90;;;;;;5076701;28;20168;-79
2021/06/22 05:11:51;;;;;;;11.47;6.37;;;14.20;99.90;;;;;;5076380;28;20218;-79
2021/06/22 05:14:17;;;;;;;13.07;7.27;;;14.20;99.90;;;;;;5076060;28;20181;-79
2021/06/22 05:16:43;;;;;;;12.40;7.33;;;14.20;99.90;;;;;;5074690;28;20813;-80
2021/06/22 05:19:09;;;;;;;10.87;7.07;;;14.20;99.90;;;;;;5076024;28;20534;-79
2021/06/22 05:21:35;;;;;;;8.67;6.37;;;14.20;99.90;;;;;;5076212;28;20687;-80
2021/06/22 05:24:00;;;;;;;11.70;7.60;;;14.10;99.90;;;;;;5075030;28;20172;-79
2021/06/22 05:26:26;;;;;;;10.87;7.70;;;14.10;99.90;;;;;;5074936;28;20203;-81
2021/06/22 05:28:52;;;;;;;15.87;7.70;;;14.10;99.90;;;;;;5076398;28;20299;-80
2021/06/22 05:31:18;;;;;;;12.23;7.07;;;14.10;99.90;;;;;;5075128;28;20164;-80
2021/06/22 05:33:43;;;;;;;13.10;7.37;;;14.10;99.90;;;;;;5073996;28;20180;-78
2021/06/22 05:36:09;;;;;;;15.33;8.13;;;14.10;99.90;;;;;;5075657;28;20262;-78
2021/06/22 05:38:35;;;;;;;12.97;7.27;;;14.10;99.90;;;;;;5090164;28;20233;-79
2021/06/22 05:41:00;;;;;;;15.83;8.93;;;14.10;99.90;;;;;;5093907;28;20203;-80
2021/06/22 05:43:26;;;;;;;14.63;7.67;;;14.10;99.90;;;;;;5096028;28;20672;-78
2021/06/22 05:45:52;;;;;;;12.97;8.00;;;14.10;99.90;;;;;;5094505;28;20187;-79
2021/06/22 05:48:17;;;;;;;15.53;8.70;;;14.00;99.90;;;;;;5094347;28;20175;-78
2021/06/22 05:50:43;;;;;;;18.00;8.93;;;14.00;99.90;;;;;;5094312;28;20282;-78
2021/06/22 05:53:09;;;;;;;15.53;8.90;;;14.00;99.90;;;;;;5094037;28;20168;-81
2021/06/22 05:55:34;;;;;;;16.80;9.50;;;14.00;99.90;;;;;;5093824;28;20180;-81
2021/06/22 05:58:00;;;;;;;18.77;9.37;;;14.00;99.90;;;;;;5094044;28;20175;-81
2021/06/22 06:00:27;;;;;;;12.43;8.07;;;14.10;99.90;;;;;;5095219;28;20206;-79
2021/06/22 06:02:54;;;;;;;15.23;8.20;;;14.10;99.90;;;;;;5093126;28;20211;-79
2021/06/22 06:05:24;;;;;;;14.43;8.47;;;14.00;99.90;;;;;;5095267;28;20168;-79
2021/06/22 06:07:51;;;;;;;12.80;9.37;;;14.00;99.90;;;;;;5081880;28;20551;-80
2021/06/22 06:10:17;;;;;;;10.77;9.30;;;14.10;99.90;;;;;;5097464;28;20175;-79
2021/06/22 06:12:43;;;;;;;13.77;9.10;;;14.00;99.90;;;;;;5094691;28;20185;-79
2021/06/22 06:15:10;;;;;;;14.83;9.37;;;14.10;99.90;;;;;;5095549;28;20573;-78
2021/06/22 06:17:37;;;;;;;14.87;8.67;;;13.90;99.90;;;;;;5094595;28;20670;-77
2021/06/22 06:20:06;;;;;;;14.67;8.53;;;13.90;99.90;;;;;;5095599;28;20174;-79
2021/06/22 06:22:32;;;;;;;12.03;8.33;;;13.90;99.90;;;;;;5093804;28;20263;-79
2021/06/22 06:25:02;;;;;;;15.30;8.57;;;13.90;99.90;;;;;;5094590;28;20168;-80
2021/06/22 06:27:49;;;;;;;11.40;8.33;;;13.90;99.90;;;;;;5095082;28;20174;-80
2021/06/22 06:30:22;;;;;;;11.40;8.27;;;13.90;99.90;;;;;;5095282;28;20311;-82
2021/06/22 06:32:49;;;;;;;16.57;8.20;;;13.90;99.90;;;;;;5093088;28;20179;-79
2021/06/22 06:35:17;;;;;;;12.03;7.67;;;13.90;99.90;;;;;;5093931;28;20262;-79
2021/06/22 06:37:43;;;;;;;10.93;8.47;;;13.90;99.90;;;;;;5112194;28;20187;-80
2021/06/22 06:40:10;;;;;;;12.90;8.50;;;13.90;99.90;;;;;;5093817;28;20179;-80
2021/06/22 06:42:37;;;;;;;14.50;9.07;;;13.90;99.90;;;;;;5094335;28;20223;-80
2021/06/22 06:45:04;;;;;;;13.67;8.53;;;13.90;99.90;;;;;;5093249;28;20195;-78
2021/06/22 06:47:30;;;;;;;16.93;7.87;;;13.90;99.90;;;;;;5091652;28;20256;-79
2021/06/22 06:49:57;;;;;;;11.17;6.43;;;14.00;99.90;;;;;;5092119;28;20616;-79
2021/06/22 06:52:22;;;;;;;13.30;7.43;;;14.00;99.90;;;;;;5093235;28;20187;-78
2021/06/22 06:54:48;;;;;;;14.00;7.77;;;14.00;99.90;;;;;;5113317;28;20220;-78
2021/06/22 06:57:14;;;;;;;13.77;7.50;;;14.00;99.90;;;;;;5094823;28;20536;-78
2021/06/22 06:59:39;;;;;;;18.43;8.13;;;14.00;99.90;;;;;;5094313;28;20218;-77
2021/06/22 07:02:05;;;;;;;10.13;6.70;;;14.30;99.90;;;;;;5093894;28;20235;-79
2021/06/22 07:04:33;;;;;;;9.10;6.80;;;14.00;99.90;;;;;;5092662;28;20168;-79
2021/06/22 07:06:59;;;;;;;14.63;7.73;;;14.20;99.90;;;;;;5110154;28;20167;-79
2021/06/22 07:09:24;;;;;;;10.60;6.93;;;14.00;99.90;;;;;;5111479;28;20218;-80
2021/06/22 07:11:50;;;;;;;13.50;7.20;;;14.00;99.90;;;;;;5107530;28;20180;-78
2021/06/22 07:14:16;;;;;;;18.60;7.77;;;14.10;99.90;;;;;;5110861;28;20206;-79
2021/06/22 07:16:42;;;;;;;19.27;8.10;;;14.20;99.90;;;;;;5112286;28;20231;-75
2021/06/22 07:19:08;;;;;;;11.63;7.57;;;14.10;99.90;;;;;;5109799;28;20174;-77
2021/06/22 07:21:35;;;;;;;17.13;7.77;;;14.10;99.90;;;;;;5087736;28;20211;-78
2021/06/22 07:24:01;;;;;;;14.70;7.53;;;14.20;99.90;;;;;;5088871;28;20600;-79
2021/06/22 07:26:29;;;;;;;14.97;7.90;;;14.10;99.90;;;;;;5096577;28;20171;-78
2021/06/22 07:28:55;;;;;;;12.27;8.27;;;14.20;99.90;;;;;;5077257;28;20183;-78
2021/06/22 07:31:24;;;;;;;11.83;8.00;;;14.20;99.90;;;;;;5093708;28;20235;-80
2021/06/22 07:33:51;;;;;;;12.30;8.30;;;14.20;99.90;;;;;;5114166;28;20266;-78
2021/06/22 07:36:18;;;;;;;13.67;8.80;;;14.20;99.90;;;;;;5108425;28;20172;-80
2021/06/22 07:38:44;;;;;;;17.43;9.17;;;14.30;99.90;;;;;;5104894;28;20175;-78
2021/06/22 07:41:10;;;;;;;15.87;8.90;;;14.20;99.90;;;;;;5086842;28;20208;-79
2021/06/22 07:43:35;;;;;;;14.07;8.93;;;14.20;99.90;;;;;;5073818;28;20259;-78
2021/06/22 07:46:01;;;;;;;12.83;8.77;;;14.30;99.90;;;;;;5074642;28;20195;-78
2021/06/22 07:48:27;;;;;;;11.27;8.30;;;14.30;99.90;;;;;;5074212;28;20192;-80
2021/06/22 07:50:52;;;;;;;12.97;9.77;;;14.20;99.90;;;;;;5074108;28;20204;-80
2021/06/22 07:53:19;;;;;;;12.63;8.80;;;14.20;99.90;;;;;;5080487;28;20157;-79
2021/06/22 07:55:45;;;;;;;12.90;8.33;;;14.30;99.90;;;;;;5095184;28;20172;-80
2021/06/22 07:58:11;;;;;;;14.10;9.20;;;14.30;99.90;;;;;;5096533;28;20166;-77
2021/06/22 08:00:42;;;;;;;14.37;9.17;;;14.30;99.90;;;;;;5104778;28;20244;-78
2021/06/22 08:03:12;;;;;;;17.30;9.73;;;14.30;99.90;;;;;;5105800;28;20255;-79
2021/06/22 08:05:42;;;;;;;10.83;8.90;;;14.30;99.90;;;;;;5093314;28;20179;-79
2021/06/22 08:08:08;;;;;;;16.13;9.83;;;14.30;99.90;;;;;;5109768;28;20243;-81
2021/06/22 08:10:35;;;;;;;17.27;10.17;;;14.30;99.90;;;;;;5113991;28;20176;-80
2021/06/22 08:13:02;;;;;;;16.03;9.50;;;14.50;99.90;;;;;;5113210;28;20659;-80
2021/06/22 08:15:29;;;;;;;12.93;9.10;;;14.50;99.90;;;;;;5111480;28;20256;-79
2021/06/22 08:17:55;;;;;;;11.87;9.20;;;14.40;99.90;;;;;;5093836;28;20214;-81
2021/06/22 08:20:21;;;;;;;13.63;9.97;;;14.30;99.90;;;;;;5097152;28;20186;-79
2021/06/22 08:22:52;;;;;;;13.20;9.50;;;14.20;99.90;;;;;;5096408;28;20931;-80
2021/06/22 08:25:18;;;;;;;15.60;9.37;;;14.20;99.90;;;;;;5099937;28;20229;-80
2021/06/22 08:27:45;;;;;;;16.27;10.20;;;14.30;99.90;;;;;;5089598;28;20202;-80
2021/06/22 08:30:14;;;;;;;13.50;9.53;;;14.20;99.90;;;;;;5078617;28;20173;-80
2021/06/22 08:32:41;;;;;;;18.20;10.17;;;14.10;99.90;;;;;;5076930;28;20525;-80
2021/06/22 08:35:08;;;;;;;17.07;9.60;;;14.20;99.90;;;;;;5077416;28;20648;-81
2021/06/22 08:37:52;;;;;;;11.90;8.93;;;14.30;99.90;;;;;;5075959;28;20271;-82
2021/06/22 08:40:17;;;;;;;13.30;8.83;;;14.30;99.90;;;;;;5075042;28;20184;-81
2021/06/22 08:42:43;;;;;;;13.57;9.30;;;14.30;99.90;;;;;;5091295;28;20239;-83
2021/06/22 08:45:11;;;;;;;18.40;9.90;;;14.30;99.90;;;;;;5096373;28;20184;-81
2021/06/22 08:47:37;;;;;;;20.73;10.37;;;14.30;99.90;;;;;;5095910;28;20192;-82
2021/06/22 08:50:04;;;;;;;12.67;9.27;;;14.40;99.90;;;;;;5094465;28;20722;-80
2021/06/22 08:52:31;;;;;;;13.67;9.70;;;14.40;99.90;;;;;;5096227;28;20175;-81
2021/06/22 08:54:58;;;;;;;12.20;9.23;;;14.40;99.90;;;;;;5094318;28;20172;-80
2021/06/22 08:57:25;;;;;;;11.60;8.87;;;14.50;99.90;;;;;;5096427;28;20217;-80
2021/06/22 08:59:54;;;;;;;13.57;8.70;;;14.40;99.90;;;;;;5096640;28;20173;-80
2021/06/22 09:02:28;;;;;;;16.03;10.63;;;14.50;99.90;;;;;;5096107;28;20253;-80
2021/06/22 09:04:55;;;;;;;15.33;8.87;;;14.50;99.90;;;;;;5094617;28;20208;-82
2021/06/22 09:07:41;;;;;;;15.13;10.40;;;14.50;99.90;;;;;;5103636;28;20193;-80
2021/06/22 09:10:08;;;;;;;15.20;10.07;;;14.50;99.90;;;;;;5113182;28;20175;-82
2021/06/22 09:12:33;;;;;;;14.47;9.87;;;14.40;99.90;;;;;;5095194;28;20175;-80
2021/06/22 09:14:59;;;;;;;12.67;9.13;;;14.40;99.90;;;;;;5097386;28;20185;-80
2021/06/22 09:17:45;;;;;;;11.13;8.30;;;14.30;99.90;;;;;;5097605;28;20171;-81
2021/06/22 09:20:13;;;;;;;15.17;9.00;;;14.30;99.90;;;;;;5096767;28;20254;-80
2021/06/22 09:22:38;;;;;;;14.13;8.73;;;14.30;99.90;;;;;;5095807;28;20195;-81
2021/06/22 09:25:09;;;;;;;16.43;10.00;;;14.30;99.90;;;;;;5096818;28;20175;-81
2021/06/22 09:27:57;;;;;;;13.70;9.17;;;14.40;99.90;;;;;;5095156;28;20187;-82
2021/06/22 09:30:41;;;;;;;12.57;9.40;;;14.40;99.90;;;;;;5093630;28;20233;-79
2021/06/22 09:33:16;;;;;;;13.83;9.37;;;14.30;99.90;;;;;;5095514;28;20220;-81
2021/06/22 09:35:43;;;;;;;11.40;8.20;;;14.40;99.90;;;;;;5094261;28;20164;-80
2021/06/22 09:38:14;;;;;;;12.00;8.17;;;14.40;99.90;;;;;;5096141;28;20167;-80
2021/06/22 09:40:40;;;;;;;13.90;8.60;;;14.40;99.90;;;;;;5096058;28;20210;-80
2021/06/22 09:43:06;;;;;;;12.53;8.43;;;14.40;99.90;;;;;;5093420;28;20250;-79
2021/06/22 09:45:32;;;;;;;10.37;8.43;;;14.40;99.90;;;;;;5094075;28;20163;-80
2021/06/22 09:48:02;;;;;;;12.20;8.73;;;14.50;99.90;;;;;;5093572;28;20197;-80
2021/06/22 09:50:36;;;;;;;13.77;8.90;;;14.40;99.90;;;;;;5094220;28;20215;-82
2021/06/22 09:53:23;;;;;;;10.83;8.83;;;14.50;99.90;;;;;;5095448;28;20662;-80
2021/06/22 09:55:49;;;;;;;9.30;6.77;;;14.60;99.90;;;;;;5095190;28;20172;-80
2021/06/22 09:58:15;;;;;;;11.67;7.80;;;14.50;99.90;;;;;;5095377;28;20162;-80
2021/06/22 10:00:41;;;;;;;12.10;8.23;;;14.50;99.90;;;;;;5095777;28;20168;-79
2021/06/22 10:03:07;;;;;;;11.73;8.20;;;14.60;99.90;;;;;;5095224;28;20203;-81
2021/06/22 10:05:52;;;;;;;11.27;7.10;;;14.60;99.90;;;;;;5093633;28;20620;-82
2021/06/22 10:08:18;;;;;;;11.93;7.83;;;14.70;99.90;;;;;;5110047;28;20176;-79
2021/06/22 10:10:44;;;;;;;12.00;6.97;;;14.60;99.90;;;;;;5106284;28;20184;-81
2021/06/22 10:13:09;;;;;;;12.90;8.20;;;14.70;99.90;;;;;;5093595;28;20187;-80
2021/06/22 10:15:35;;;;;;;12.17;8.40;;;14.80;99.90;;;;;;5094836;28;20172;-81
2021/06/22 10:18:01;;;;;;;13.00;8.40;;;14.90;99.90;;;;;;5094708;28;20560;-81
2021/06/22 10:20:27;;;;;;;14.03;8.00;;;15.00;99.90;;;;;;5095757;28;20182;-82
2021/06/22 10:22:54;;;;;;;12.97;7.63;;;14.90;99.50;;;;;;5095754;28;20208;-80
2021/06/22 10:25:20;;;;;;;18.23;8.80;;;15.00;99.90;;;;;;5095498;28;20198;-79
2021/06/22 10:27:52;;;;;;;12.53;8.77;;;15.00;99.20;;;;;;5094631;28;20256;-79
2021/06/22 10:30:20;;;;;;;11.90;8.83;;;15.00;99.70;;;;;;5094162;28;20200;-79
2021/06/22 10:32:45;;;;;;;14.43;9.07;;;15.00;98.90;;;;;;5094841;28;20195;-80
2021/06/22 10:35:13;;;;;;;11.33;8.47;;;15.10;99.90;;;;;;5100677;28;20182;-83
2021/06/22 10:37:53;;;;;;;13.43;10.10;;;14.90;98.60;;;;;;5099496;28;20183;-79
2021/06/22 10:40:22;;;;;;;13.40;10.07;;;14.70;97.30;;;;;;5098322;28;20231;-80
2021/06/22 10:42:51;;;;;;;15.37;10.33;;;14.60;96.00;;;;;;5097027;28;20282;-79
2021/06/22 10:45:23;;;;;;;12.77;10.30;;;14.60;95.30;;;;;;5097445;28;20168;-80
2021/06/22 10:47:53;;;;;;;18.07;11.60;;;14.70;94.50;;;;;;5078271;28;20222;-80
2021/06/22 10:50:22;;;;;;;12.67;11.37;;;14.90;94.50;;;;;;5097605;28;20738;-82
2021/06/22 10:53:02;;;;;;;14.97;11.93;;;14.80;93.70;;;;;;5095044;28;20191;-80
2021/06/22 10:55:28;;;;;;;16.40;11.40;;;15.00;93.10;;;;;;5095031;28;20213;-78
2021/06/22 10:57:57;;;;;;;13.47;12.07;;;14.90;92.30;;;;;;5099887;28;20180;-82
2021/06/22 11:00:23;;;;;;;15.10;11.80;;;14.90;92.10;;;;;;5095712;28;20186;-80
2021/06/22 11:03:02;;;;;;;15.50;12.07;;;15.10;91.80;;;;;;5094814;28;20249;-82
2021/06/22 11:05:29;;;;;;;15.73;12.23;;;15.30;91.90;;;;;;5094990;28;20163;-81
2021/06/22 11:08:21;;;;;;;17.23;12.03;;;15.20;89.30;;;;;;5107769;28;20179;-81
2021/06/22 11:10:47;;;;;;;14.50;11.60;;;15.10;90.50;;;;;;5082654;28;20187;-81
2021/06/22 11:13:45;;;;;;;18.80;13.90;;;15.00;90.10;;;;;;5094388;28;20213;-82
2021/06/22 11:16:13;;;;;;;17.17;14.90;;;15.10;92.10;;;;;;5093355;28;20168;-79
2021/06/22 11:18:54;;;;;;;16.77;14.73;;;15.20;92.60;;;;;;5093860;28;20186;-83
2021/06/22 11:21:23;;;;;;;22.23;16.23;;;15.50;93.20;;;;;;5095541;28;20205;-82
2021/06/22 11:24:05;;;;;;;17.00;14.50;;;15.40;93.10;;;;;;5094328;28;20226;-83
2021/06/22 11:27:04;;;;;;;19.77;15.90;;;15.40;92.90;;;;;;5095209;28;20666;-81
2021/06/22 11:29:36;;;;;;;19.70;15.97;;;15.30;93.40;;;;;;5072630;28;20167;-80
2021/06/22 11:32:03;;;;;;;19.97;17.17;;;15.30;92.80;;;;;;5073755;28;20172;-81
2021/06/22 11:34:34;;;;;;;22.93;16.30;;;15.30;94.00;;;;;;5077245;28;20180;-80
2021/06/22 11:37:09;;;;;;;19.77;17.43;;;15.40;93.40;;;;;;5075839;28;20173;-80
2021/06/22 11:39:58;;;;;;;22.13;18.23;;;15.40;93.70;;;;;;5087387;28;20187;-80
2021/06/22 11:42:24;;;;;;;21.10;17.03;;;15.50;93.50;;;;;;5087224;28;20418;-81
2021/06/22 11:44:56;;;;;;;24.57;18.03;;;15.50;91.50;;;;;;5082402;28;20229;-80
2021/06/22 11:47:25;;;;;;;19.30;17.10;;;15.60;93.30;;;;;;5075765;28;20216;-79
2021/06/22 11:49:57;;;;;;;24.87;19.23;;;15.60;92.30;;;;;;5072853;28;20168;-81
2021/06/22 11:52:36;;;;;;;20.97;18.83;;;15.70;92.80;;;;;;5073769;28;20172;-81
2021/06/22 11:55:21;;;;;;;20.27;18.17;;;15.80;92.80;;;;;;5078012;28;20163;-82
2021/06/22 11:57:57;;;;;;;18.90;16.90;;;15.70;90.70;;;;;;5077995;28;20156;-82
2021/06/22 12:00:35;;;;;;;21.33;18.70;;;15.60;89.30;;;;;;5078385;28;20171;-81
2021/06/22 12:03:09;;;;;;;22.27;18.13;;;15.70;91.00;;;;;;5081229;28;20207;-82
2021/06/22 12:05:37;;;;;;;21.80;18.33;;;15.60;90.70;;;;;;5078935;28;20232;-81
2021/06/22 12:08:06;;;;;;;24.50;19.53;;;15.60;92.00;;;;;;5108570;28;20171;-83
2021/06/22 12:10:51;;;;;;;23.40;19.10;;;15.70;92.30;;;;;;5110824;28;20174;-81
2021/06/22 12:13:31;;;;;;;22.37;17.37;;;15.70;90.50;;;;;;5095953;28;20178;-81
2021/06/22 12:15:57;;;;;;;18.33;16.43;;;15.60;88.40;;;;;;5094815;28;20183;-82
2021/06/22 12:18:32;;;;;;;19.27;17.27;;;15.50;87.60;;;;;;5097294;28;20170;-82
2021/06/22 12:21:01;;;;;;;22.37;16.60;;;15.50;90.40;;;;;;5096596;28;20179;-79
2021/06/22 12:23:28;;;;;;;24.53;17.77;;;15.50;89.60;;;;;;5098043;28;20181;-80
2021/06/22 12:25:54;;;;;;;22.83;18.93;;;15.60;87.30;;;;;;5097233;28;20182;-80
2021/06/22 12:28:24;;;;;;;26.47;19.27;;;15.50;88.00;;;;;;5097150;28;20231;-79
2021/06/22 12:30:57;;;;;;;23.37;17.80;;;15.60;90.30;;;;;;5095550;28;20181;-80
2021/06/22 12:33:29;;;;;;;22.83;19.13;;;15.60;88.30;;;;;;5095182;28;20168;-82
2021/06/22 12:36:00;;;;;;;24.73;19.53;;;15.60;89.80;;;;;;5096285;28;20164;-82
2021/06/22 12:38:28;;;;;;;24.07;19.27;;;15.70;89.30;;;;;;5095883;28;20168;-84
2021/06/22 12:40:57;;;;;;;23.20;20.47;;;15.80;90.20;;;;;;5095888;28;20189;-81
2021/06/22 12:43:49;;;;;;;21.97;18.97;;;15.80;85.00;;;;;;5095483;28;20179;-82